Time;durP1;ratioP1;P1;durP2;ratioP2;P2;SDS_P1;SDS_P2;PMS_P1;PMS_P2;Temp;Humidity;BMP_temperature;BMP_pressure;BME280_temperature;BME280_humidity;BME280_pressure;Samples;Min_cycle;Max_cycle;Signal;HPM_P1;HPM_P2
2020/12/20 00:00:21;;;;;;;5.22;2.60;;;21.10;45.50;;;;;;1498333;93;21227;-37
2020/12/20 00:02:51;;;;;;;4.85;2.67;;;21.10;45.60;;;;;;1484254;93;21697;-35
2020/12/20 00:05:23;;;;;;;5.10;2.95;;;21.10;45.50;;;;;;1500479;93;21297;-34
2020/12/20 00:07:52;;;;;;;5.92;2.98;;;21.10;45.90;;;;;;1497577;93;21226;-35
2020/12/20 00:10:21;;;;;;;5.17;2.67;;;21.10;45.50;;;;;;1466492;93;21245;-34
2020/12/20 00:12:49;;;;;;;5.50;2.52;;;21.10;45.50;;;;;;1499786;93;21289;-37
2020/12/20 00:15:19;;;;;;;7.17;3.27;;;21.10;45.60;;;;;;1479502;93;21367;-34
2020/12/20 00:17:49;;;;;;;7.12;2.80;;;21.10;45.60;;;;;;1502349;93;21189;-35
2020/12/20 00:20:17;;;;;;;4.97;2.52;;;21.10;45.60;;;;;;1501240;93;21292;-35
2020/12/20 00:22:46;;;;;;;7.37;3.52;;;21.10;45.60;;;;;;1483550;93;21262;-36
2020/12/20 00:25:14;;;;;;;5.92;2.80;;;21.10;45.60;;;;;;1499083;93;21234;-34
2020/12/20 00:27:42;;;;;;;6.12;3.12;;;21.10;45.60;;;;;;1500848;93;21206;-36
2020/12/20 00:30:10;;;;;;;5.40;2.77;;;21.10;45.60;;;;;;1486466;93;21273;-35
2020/12/20 00:32:38;;;;;;;7.28;3.60;;;21.10;45.60;;;;;;1498717;93;21604;-34
2020/12/20 00:35:07;;;;;;;5.60;2.92;;;21.10;45.60;;;;;;1484194;93;21217;-34
2020/12/20 00:37:35;;;;;;;6.10;2.58;;;21.10;45.60;;;;;;1483540;93;21709;-35
2020/12/20 00:40:04;;;;;;;6.25;3.12;;;21.10;45.60;;;;;;1501355;93;21309;-34
2020/12/20 00:42:33;;;;;;;4.55;2.70;;;21.10;45.60;;;;;;1483438;93;21281;-35
2020/12/20 00:45:00;;;;;;;4.30;2.50;;;21.10;45.60;;;;;;1500836;93;21210;-37
2020/12/20 00:47:28;;;;;;;6.62;2.87;;;21.10;45.60;;;;;;1501027;93;21563;-36
2020/12/20 00:49:55;;;;;;;4.80;2.37;;;21.10;45.60;;;;;;1467158;93;21336;-37
2020/12/20 00:52:23;;;;;;;5.15;2.50;;;21.10;45.60;;;;;;1501199;93;21646;-36
2020/12/20 00:54:51;;;;;;;6.50;2.72;;;21.10;45.60;;;;;;1480422;93;21306;-34
2020/12/20 00:57:18;;;;;;;5.60;2.55;;;21.10;45.60;;;;;;1483651;93;21416;-34
2020/12/20 00:59:46;;;;;;;4.83;2.65;;;21.10;45.70;;;;;;1497701;92;21709;-36
2020/12/20 01:02:14;;;;;;;5.60;2.90;;;21.10;45.70;;;;;;1482277;93;21183;-34
2020/12/20 01:04:42;;;;;;;4.42;2.90;;;21.10;45.70;;;;;;1495518;93;21492;-34
2020/12/20 01:07:10;;;;;;;3.65;2.35;;;21.10;45.70;;;;;;1499970;93;21667;-34
2020/12/20 01:09:37;;;;;;;4.83;2.42;;;21.10;45.70;;;;;;1467944;93;21449;-33
2020/12/20 01:12:05;;;;;;;5.40;2.62;;;21.10;45.80;;;;;;1500107;93;21789;-33
2020/12/20 01:14:33;;;;;;;3.77;2.50;;;21.10;45.70;;;;;;1483510;93;21364;-37
2020/12/20 01:17:03;;;;;;;4.40;2.37;;;21.10;45.70;;;;;;1480946;93;21226;-37
2020/12/20 01:19:31;;;;;;;5.65;2.80;;;21.00;45.70;;;;;;1499296;93;21682;-35
2020/12/20 01:22:00;;;;;;;3.30;2.37;;;21.10;45.70;;;;;;1483862;93;21210;-34
2020/12/20 01:24:28;;;;;;;5.33;2.52;;;21.10;45.80;;;;;;1502549;93;21249;-36
2020/12/20 01:26:55;;;;;;;4.37;2.50;;;21.00;45.70;;;;;;1498393;93;21355;-37
2020/12/20 01:29:23;;;;;;;3.67;2.25;;;21.00;45.80;;;;;;1467264;93;21308;-34
2020/12/20 01:31:51;;;;;;;4.33;2.42;;;21.00;45.80;;;;;;1500501;93;21685;-37
2020/12/20 01:34:18;;;;;;;3.33;2.25;;;21.10;45.80;;;;;;1500008;93;21202;-35
2020/12/20 01:36:46;;;;;;;4.15;2.30;;;21.10;45.80;;;;;;1481052;93;21749;-35
2020/12/20 01:39:15;;;;;;;4.67;2.30;;;21.10;45.80;;;;;;1500173;93;21312;-33
2020/12/20 01:41:43;;;;;;;4.42;2.40;;;21.10;45.80;;;;;;1468404;93;21310;-38
2020/12/20 01:44:11;;;;;;;5.72;2.70;;;21.10;45.80;;;;;;1499266;93;21225;-34
2020/12/20 01:46:41;;;;;;;5.17;2.33;;;21.00;45.70;;;;;;1500159;93;21258;-34
2020/12/20 01:49:11;;;;;;;5.92;2.58;;;21.10;45.80;;;;;;1500347;93;21329;-35
2020/12/20 01:51:39;;;;;;;4.70;2.42;;;21.00;46.30;;;;;;1499680;93;21369;-36
2020/12/20 01:54:08;;;;;;;5.20;2.40;;;21.00;45.80;;;;;;1481394;93;21214;-34
2020/12/20 01:56:37;;;;;;;4.20;2.30;;;21.00;45.80;;;;;;1483805;93;22115;-34
2020/12/20 01:59:05;;;;;;;3.55;2.05;;;21.10;45.80;;;;;;1500899;93;21886;-35
2020/12/20 02:01:32;;;;;;;4.45;2.27;;;21.10;45.80;;;;;;1484714;93;21234;-36
2020/12/20 02:04:00;;;;;;;6.37;2.60;;;21.00;45.80;;;;;;1499506;93;21202;-36
2020/12/20 02:06:28;;;;;;;4.55;2.22;;;21.00;45.80;;;;;;1500468;93;21272;-37
2020/12/20 02:08:55;;;;;;;4.12;2.15;;;21.00;45.80;;;;;;1483825;93;21226;-37
2020/12/20 02:11:23;;;;;;;4.45;2.33;;;21.00;45.80;;;;;;1499026;93;21314;-35
2020/12/20 02:13:53;;;;;;;3.58;2.35;;;21.00;45.90;;;;;;1482548;93;21214;-36
2020/12/20 02:16:23;;;;;;;3.35;2.15;;;21.00;45.90;;;;;;1482974;93;21190;-35
2020/12/20 02:18:51;;;;;;;3.70;2.47;;;21.00;45.90;;;;;;1497554;93;21298;-34
2020/12/20 02:21:22;;;;;;;5.12;2.50;;;21.00;45.90;;;;;;1469193;93;21286;-36
2020/12/20 02:23:51;;;;;;;6.55;2.45;;;21.00;46.00;;;;;;1505274;93;21346;-36
2020/12/20 02:26:21;;;;;;;2.37;1.70;;;21.00;46.00;;;;;;1500222;93;21225;-34
2020/12/20 02:28:51;;;;;;;3.55;2.22;;;21.00;46.00;;;;;;1486564;93;21690;-35
2020/12/20 02:31:19;;;;;;;5.15;2.40;;;21.00;46.00;;;;;;1502151;93;21247;-37
2020/12/20 02:33:48;;;;;;;2.87;2.15;;;21.00;46.00;;;;;;1485031;93;21237;-34
2020/12/20 02:36:15;;;;;;;2.98;2.02;;;21.00;46.00;;;;;;1505278;93;21225;-39
2020/12/20 02:38:44;;;;;;;3.37;2.17;;;21.00;46.00;;;;;;1504655;93;21207;-35
2020/12/20 02:41:11;;;;;;;3.87;2.50;;;21.00;46.00;;;;;;1485178;93;21303;-36
2020/12/20 02:43:39;;;;;;;2.80;2.00;;;21.00;46.00;;;;;;1506642;93;21319;-38
2020/12/20 02:46:07;;;;;;;3.20;1.80;;;21.00;46.10;;;;;;1503667;93;21662;-37
2020/12/20 02:48:34;;;;;;;3.08;2.20;;;21.00;46.00;;;;;;1487459;93;21214;-37
2020/12/20 02:51:02;;;;;;;3.15;2.08;;;21.00;46.10;;;;;;1499267;93;21438;-34
2020/12/20 02:53:31;;;;;;;3.40;2.33;;;21.10;46.10;;;;;;1499982;93;21328;-35
2020/12/20 02:55:58;;;;;;;4.58;2.50;;;21.00;46.60;;;;;;1483683;93;21323;-33
2020/12/20 02:58:26;;;;;;;4.55;2.20;;;21.10;46.10;;;;;;1502087;93;21247;-35
2020/12/20 03:00:54;;;;;;;3.85;2.15;;;21.10;46.10;;;;;;1487629;93;21190;-38
2020/12/20 03:03:21;;;;;;;3.50;2.15;;;21.10;46.70;;;;;;1501821;93;21319;-34
2020/12/20 03:05:49;;;;;;;2.77;2.10;;;21.10;46.60;;;;;;1502737;93;21298;-35
2020/12/20 03:08:17;;;;;;;2.87;2.30;;;21.20;46.00;;;;;;1501011;93;21206;-35
2020/12/20 03:10:44;;;;;;;3.37;2.40;;;21.20;46.70;;;;;;1500623;93;22434;-33
2020/12/20 03:13:12;;;;;;;3.52;2.00;;;21.20;46.00;;;;;;1485894;93;21191;-36
2020/12/20 03:15:42;;;;;;;3.25;2.00;;;21.20;46.00;;;;;;1504996;93;21798;-33
2020/12/20 03:18:09;;;;;;;2.65;1.72;;;21.20;46.00;;;;;;1499577;93;21849;-34
2020/12/20 03:20:37;;;;;;;5.42;2.40;;;21.20;46.60;;;;;;1486645;93;21274;-36
2020/12/20 03:23:05;;;;;;;4.08;1.92;;;21.20;46.00;;;;;;1504343;93;21336;-35
2020/12/20 03:25:33;;;;;;;3.92;2.27;;;21.20;46.00;;;;;;1503374;93;21413;-34
2020/12/20 03:28:00;;;;;;;2.08;1.87;;;21.20;46.00;;;;;;1469621;93;22322;-36
2020/12/20 03:30:29;;;;;;;3.40;2.02;;;21.20;46.00;;;;;;1496439;93;21174;-34
2020/12/20 03:32:56;;;;;;;2.47;1.75;;;21.20;46.00;;;;;;1482613;93;21246;-35
2020/12/20 03:35:24;;;;;;;3.37;1.90;;;21.20;46.00;;;;;;1500876;93;21377;-35
2020/12/20 03:37:56;;;;;;;2.17;1.60;;;21.20;46.00;;;;;;1501921;93;21805;-35
2020/12/20 03:40:25;;;;;;;2.87;1.60;;;21.30;46.00;;;;;;1469363;93;21282;-34
2020/12/20 03:42:53;;;;;;;3.77;1.92;;;21.20;45.90;;;;;;1497847;93;21844;-35
2020/12/20 03:45:20;;;;;;;2.62;1.85;;;21.30;46.00;;;;;;1466021;93;21238;-36
2020/12/20 03:47:48;;;;;;;2.87;1.90;;;21.20;45.90;;;;;;1498102;93;21163;-34
2020/12/20 03:50:17;;;;;;;2.30;1.80;;;21.30;45.90;;;;;;1501012;93;21199;-34
2020/12/20 03:52:44;;;;;;;4.10;2.10;;;21.30;45.90;;;;;;1467947;93;21307;-36
2020/12/20 03:55:12;;;;;;;2.98;1.90;;;21.30;45.90;;;;;;1500791;93;21749;-35
2020/12/20 03:57:40;;;;;;;3.00;1.87;;;21.30;45.90;;;;;;1485201;93;21249;-36
2020/12/20 04:00:07;;;;;;;4.03;2.00;;;21.30;45.90;;;;;;1501206;93;21313;-36
2020/12/20 04:02:35;;;;;;;4.03;2.10;;;21.30;45.90;;;;;;1501268;93;21315;-36
2020/12/20 04:05:03;;;;;;;2.87;1.92;;;21.30;45.90;;;;;;1464975;93;21294;-34
2020/12/20 04:07:31;;;;;;;3.80;2.25;;;21.30;45.90;;;;;;1503805;93;21707;-35
2020/12/20 04:09:58;;;;;;;3.37;2.25;;;21.40;45.90;;;;;;1498890;93;21179;-35
2020/12/20 04:12:26;;;;;;;3.00;1.92;;;21.30;45.90;;;;;;1499061;93;22385;-35
2020/12/20 04:14:54;;;;;;;2.62;1.85;;;21.30;45.90;;;;;;1504387;93;21360;-36
2020/12/20 04:17:21;;;;;;;3.45;1.82;;;21.30;45.90;;;;;;1483675;93;21191;-34
2020/12/20 04:19:49;;;;;;;2.85;1.87;;;21.40;45.90;;;;;;1500689;93;21277;-35
2020/12/20 04:22:16;;;;;;;2.33;1.60;;;21.40;46.00;;;;;;1499281;93;21327;-37
2020/12/20 04:24:44;;;;;;;3.87;1.62;;;21.30;45.90;;;;;;1477427;94;21255;-34
2020/12/20 04:27:12;;;;;;;2.83;1.90;;;21.40;45.90;;;;;;1491305;93;21223;-34
2020/12/20 04:29:39;;;;;;;4.50;1.70;;;21.40;45.90;;;;;;1489844;94;21247;-35
2020/12/20 04:32:08;;;;;;;3.02;1.92;;;21.40;46.00;;;;;;1476883;94;21231;-35
2020/12/20 04:34:36;;;;;;;2.87;1.95;;;21.30;45.90;;;;;;1492337;94;21277;-34
2020/12/20 04:37:04;;;;;;;3.35;2.05;;;21.40;45.90;;;;;;1492832;94;21795;-36
2020/12/20 04:39:31;;;;;;;2.30;1.55;;;21.40;45.90;;;;;;1494383;93;21674;-34
2020/12/20 04:42:01;;;;;;;3.90;1.85;;;21.40;46.00;;;;;;1491685;94;21207;-35
2020/12/20 04:44:28;;;;;;;3.20;1.70;;;21.30;45.90;;;;;;1476453;94;21698;-34
2020/12/20 04:46:57;;;;;;;3.00;1.90;;;21.40;45.90;;;;;;1496665;94;21248;-36
2020/12/20 04:49:29;;;;;;;2.37;1.92;;;21.40;45.90;;;;;;1499643;94;21684;-34
2020/12/20 04:51:55;;;;;;;2.62;1.90;;;21.40;45.90;;;;;;1460303;95;21218;-35
2020/12/20 04:54:24;;;;;;;2.75;1.82;;;21.40;46.00;;;;;;1493267;93;21195;-33
2020/12/20 04:56:52;;;;;;;1.57;1.47;;;21.40;45.90;;;;;;1481248;94;21685;-34
2020/12/20 04:59:20;;;;;;;2.42;1.40;;;21.40;45.90;;;;;;1484234;94;21751;-35
2020/12/20 05:01:47;;;;;;;4.70;2.02;;;21.40;45.90;;;;;;1496658;94;21242;-33
2020/12/20 05:04:15;;;;;;;2.20;1.40;;;21.40;45.90;;;;;;1475291;94;21342;-35
2020/12/20 05:06:43;;;;;;;3.05;1.60;;;21.40;45.90;;;;;;1495025;93;21246;-37
2020/12/20 05:09:11;;;;;;;3.10;1.67;;;21.40;45.90;;;;;;1496170;93;21403;-34
2020/12/20 05:11:41;;;;;;;2.65;1.87;;;21.40;45.90;;;;;;1493820;94;21218;-33
2020/12/20 05:14:10;;;;;;;3.05;1.70;;;21.40;46.50;;;;;;1494321;94;21317;-34
2020/12/20 05:16:39;;;;;;;1.75;1.60;;;21.40;45.90;;;;;;1495255;93;21306;-33
2020/12/20 05:19:15;;;;;;;5.47;1.80;;;21.40;45.90;;;;;;1479539;94;21259;-34
2020/12/20 05:21:38;;;;;;;2.02;1.52;;;21.40;45.90;;;;;;1490437;94;21239;-33
2020/12/20 05:24:26;;;;;;;2.45;1.62;;;21.40;45.90;;;;;;1474854;94;21316;-34
2020/12/20 05:26:54;;;;;;;1.65;1.52;;;21.40;45.90;;;;;;1492438;92;67249;-40
2020/12/20 05:29:28;;;;;;;1.90;1.40;;;21.40;45.90;;;;;;1480851;94;21243;-37
2020/12/20 05:31:56;;;;;;;1.55;1.45;;;21.40;45.90;;;;;;1489442;94;21693;-37
2020/12/20 05:34:24;;;;;;;2.58;1.67;;;21.40;45.90;;;;;;1491420;94;21242;-36
2020/12/20 05:36:52;;;;;;;1.62;1.52;;;21.40;45.90;;;;;;1463206;94;21309;-37
2020/12/20 05:39:21;;;;;;;2.17;1.65;;;21.40;45.90;;;;;;1494732;94;21231;-38
2020/12/20 05:41:49;;;;;;;2.85;1.57;;;21.40;45.90;;;;;;1493560;93;21298;-35
2020/12/20 05:44:26;;;;;;;2.12;1.70;;;21.40;45.90;;;;;;1492684;93;21207;-35
2020/12/20 05:46:52;;;;;;;2.08;1.50;;;21.40;45.90;;;;;;1491664;94;21309;-39
2020/12/20 05:49:22;;;;;;;3.67;2.00;;;21.50;45.90;;;;;;1494035;94;21183;-36
2020/12/20 05:52:10;;;;;;;2.25;1.62;;;21.50;45.90;;;;;;1474374;94;21132;-53
2020/12/20 05:54:42;;;;;;;2.17;1.57;;;21.50;45.90;;;;;;1483596;94;107394;-38
2020/12/20 05:57:14;;;;;;;2.45;1.82;;;21.50;45.90;;;;;;1498953;93;21274;-38
2020/12/20 05:59:44;;;;;;;2.47;1.37;;;21.40;45.90;;;;;;1500969;93;21314;-38
2020/12/20 06:02:13;;;;;;;1.67;1.45;;;21.50;45.90;;;;;;1499365;93;21186;-39
2020/12/20 06:04:42;;;;;;;2.42;1.50;;;21.50;45.90;;;;;;1501091;93;21227;-38
2020/12/20 06:07:11;;;;;;;2.52;1.45;;;21.40;45.90;;;;;;1501107;93;21275;-37
2020/12/20 06:09:56;;;;;;;2.72;1.70;;;21.40;45.90;;;;;;1465547;94;21817;-37
2020/12/20 06:12:29;;;;;;;1.85;1.40;;;21.50;46.00;;;;;;1497185;92;67537;-37
2020/12/20 06:14:59;;;;;;;1.75;1.45;;;21.50;45.90;;;;;;1480074;94;21235;-37
2020/12/20 06:17:28;;;;;;;2.10;1.77;;;21.40;45.90;;;;;;1479767;94;21708;-40
2020/12/20 06:20:01;;;;;;;2.20;1.70;;;21.40;45.90;;;;;;1496224;93;21237;-39
2020/12/20 06:22:32;;;;;;;1.82;1.55;;;21.40;45.90;;;;;;1470396;94;21232;-35
2020/12/20 06:25:02;;;;;;;1.95;1.50;;;21.40;45.90;;;;;;1496795;94;21247;-39
2020/12/20 06:27:32;;;;;;;1.47;1.37;;;21.40;45.90;;;;;;1498112;94;21584;-37
2020/12/20 06:30:03;;;;;;;1.98;1.50;;;21.40;45.90;;;;;;1479214;94;21238;-37
2020/12/20 06:32:42;;;;;;;2.17;1.45;;;21.40;45.90;;;;;;1495942;94;21234;-36
2020/12/20 06:35:16;;;;;;;2.42;2.00;;;21.50;45.90;;;;;;1481517;93;67447;-37
2020/12/20 06:37:44;;;;;;;2.35;1.30;;;21.40;45.90;;;;;;1492984;92;21698;-40
2020/12/20 06:40:14;;;;;;;2.75;1.50;;;21.50;45.90;;;;;;1498885;92;22123;-37
2020/12/20 06:42:44;;;;;;;1.98;1.40;;;21.50;45.90;;;;;;1505304;93;21249;-35
2020/12/20 06:45:20;;;;;;;2.15;1.45;;;21.50;46.00;;;;;;1504295;93;21797;-37
2020/12/20 06:47:50;;;;;;;1.77;1.42;;;21.50;45.90;;;;;;1494800;92;21704;-39
2020/12/20 06:50:46;;;;;;;2.00;1.40;;;21.40;45.90;;;;;;1508048;92;21647;-38
2020/12/20 06:53:16;;;;;;;1.57;1.45;;;21.50;45.90;;;;;;1493949;89;67469;-42
2020/12/20 06:55:45;;;;;;;1.62;1.52;;;21.40;45.90;;;;;;1501842;94;21779;-38
2020/12/20 06:58:16;;;;;;;2.92;1.80;;;21.50;45.90;;;;;;1499521;94;21262;-39
2020/12/20 07:00:49;;;;;;;2.02;1.42;;;21.40;45.90;;;;;;1479063;94;21198;-38
2020/12/20 07:03:31;;;;;;;1.40;1.15;;;21.50;46.00;;;;;;1487776;94;21206;-38
2020/12/20 07:05:56;;;;;;;2.75;1.50;;;21.50;45.90;;;;;;1488094;94;21264;-36
2020/12/20 07:08:26;;;;;;;2.50;1.40;;;21.50;45.90;;;;;;1498528;94;21251;-36
2020/12/20 07:10:59;;;;;;;2.25;1.60;;;21.50;45.90;;;;;;1489101;94;21789;-38
2020/12/20 07:13:41;;;;;;;2.05;1.50;;;21.50;45.90;;;;;;1495505;93;21866;-37
2020/12/20 07:16:17;;;;;;;2.42;1.75;;;21.50;45.90;;;;;;1455666;95;67971;-42
2020/12/20 07:18:50;;;;;;;1.40;1.30;;;21.40;45.90;;;;;;1453790;95;21201;-35
2020/12/20 07:21:26;;;;;;;1.82;1.40;;;21.50;45.90;;;;;;1437728;96;21605;-38
2020/12/20 07:23:54;;;;;;;;;;;21.50;46.00;;;;;;1456691;95;21253;-35
2020/12/20 07:26:22;;;;;;;1.57;1.30;;;21.50;45.90;;;;;;1427388;97;20246;-35
2020/12/20 07:28:50;;;;;;;1.72;1.55;;;21.50;45.90;;;;;;1447476;96;21288;-39
2020/12/20 07:31:21;;;;;;;1.52;1.42;;;21.50;46.00;;;;;;1460176;96;21230;-36
2020/12/20 07:33:50;;;;;;;1.50;1.40;;;21.50;45.90;;;;;;1459859;96;21244;-36
2020/12/20 07:36:20;;;;;;;2.40;1.50;;;21.50;45.90;;;;;;1446700;96;21278;-35
2020/12/20 07:38:49;;;;;;;2.83;1.47;;;21.50;46.00;;;;;;1459521;96;21699;-40
2020/12/20 07:41:17;;;;;;;2.17;1.42;;;21.50;45.90;;;;;;1442079;96;21225;-37
2020/12/20 07:43:46;;;;;;;2.47;1.65;;;21.50;45.90;;;;;;1447357;96;21234;-38
2020/12/20 07:46:16;;;;;;;1.98;1.35;;;21.50;45.90;;;;;;1457118;96;21412;-41
2020/12/20 07:48:44;;;;;;;2.15;1.60;;;21.50;46.00;;;;;;1447538;96;21326;-38
2020/12/20 07:51:14;;;;;;;2.17;1.45;;;21.50;45.90;;;;;;1454816;96;21341;-38
2020/12/20 07:53:59;;;;;;;2.15;1.70;;;21.50;45.90;;;;;;1452109;96;21240;-38
2020/12/20 07:56:39;;;;;;;1.37;1.17;;;21.50;45.90;;;;;;1438398;96;67579;-35
2020/12/20 07:59:09;;;;;;;3.87;1.50;;;21.50;45.90;;;;;;1452382;95;70244;-41
2020/12/20 08:01:40;;;;;;;1.30;1.20;;;21.50;45.90;;;;;;1459818;95;21746;-39
2020/12/20 08:04:14;;;;;;;2.20;1.55;;;21.50;45.90;;;;;;1472249;95;21251;-39
2020/12/20 08:06:47;;;;;;;1.75;1.45;;;21.50;45.80;;;;;;1460276;96;21243;-39
2020/12/20 08:09:20;;;;;;;1.80;1.32;;;21.50;45.80;;;;;;1456737;95;21335;-39
2020/12/20 08:11:50;;;;;;;2.33;1.70;;;21.50;45.90;;;;;;1482500;95;21735;-36
2020/12/20 08:14:19;;;;;;;1.30;1.20;;;21.50;45.80;;;;;;1459385;95;21298;-40
2020/12/20 08:16:51;;;;;;;1.42;1.32;;;21.50;45.90;;;;;;1472454;95;21239;-40
2020/12/20 08:19:28;;;;;;;1.72;1.32;;;21.50;45.90;;;;;;1476448;95;21192;-38
2020/12/20 08:22:10;;;;;;;1.55;1.45;;;21.50;45.80;;;;;;1457907;96;21310;-37
2020/12/20 08:24:43;;;;;;;1.52;1.35;;;21.50;45.90;;;;;;1447524;97;67772;-36
2020/12/20 08:27:29;;;;;;;1.62;1.35;;;21.50;45.80;;;;;;1423853;96;21266;-39
2020/12/20 08:30:02;;;;;;;2.03;1.40;;;21.50;45.80;;;;;;1456537;96;67396;-37
2020/12/20 08:32:41;;;;;;;1.40;1.30;;;21.50;45.90;;;;;;1473206;96;21244;-39
2020/12/20 08:35:11;;;;;;;2.50;1.30;;;21.50;45.80;;;;;;1473700;95;67883;-38
2020/12/20 08:37:39;;;;;;;2.02;1.50;;;21.50;45.80;;;;;;1484299;95;21260;-35
2020/12/20 08:40:12;;;;;;;1.90;1.45;;;21.50;45.80;;;;;;1452745;96;21192;-37
2020/12/20 08:42:40;;;;;;;1.70;1.47;;;21.60;46.10;;;;;;1468507;95;21180;-38
2020/12/20 08:45:17;;;;;;;2.85;1.62;;;21.50;45.80;;;;;;1455447;95;21326;-34
2020/12/20 08:47:45;;;;;;;2.55;1.32;;;21.50;45.80;;;;;;1469804;95;21260;-37
2020/12/20 08:50:14;;;;;;;1.67;1.45;;;21.50;45.80;;;;;;1473858;95;21216;-40
2020/12/20 08:52:41;;;;;;;2.42;1.37;;;21.50;45.80;;;;;;1455681;95;21350;-41
2020/12/20 08:55:09;;;;;;;2.37;1.67;;;21.50;46.30;;;;;;1471861;95;21656;-40
2020/12/20 08:57:37;;;;;;;1.67;1.32;;;21.60;45.80;;;;;;1473245;95;21979;-37
2020/12/20 09:00:13;;;;;;;1.60;1.20;;;21.50;45.80;;;;;;1459751;95;21320;-41
2020/12/20 09:02:42;;;;;;;1.20;1.10;;;21.50;45.80;;;;;;1473135;95;21196;-38
2020/12/20 09:05:15;;;;;;;1.15;1.00;;;21.50;45.80;;;;;;1463870;96;21220;-38
2020/12/20 09:07:50;;;;;;;1.25;1.15;;;21.60;46.50;;;;;;1473694;95;21861;-41
2020/12/20 09:10:32;;;;;;;1.37;1.27;;;21.50;45.80;;;;;;1474511;95;21247;-36
2020/12/20 09:13:05;;;;;;;3.35;1.40;;;21.50;45.90;;;;;;1445051;96;67846;-37
2020/12/20 09:15:41;;;;;;;1.45;1.22;;;21.50;45.90;;;;;;1473668;95;21255;-36
2020/12/20 09:18:21;;;;;;;2.05;1.47;;;21.50;46.10;;;;;;1465352;95;21678;-34
2020/12/20 09:20:49;;;;;;;1.82;1.50;;;21.60;45.90;;;;;;1441910;97;67185;-38
2020/12/20 09:23:20;;;;;;;1.47;1.20;;;21.50;45.80;;;;;;1454905;96;21239;-34
2020/12/20 09:25:49;;;;;;;1.35;1.25;;;21.60;45.90;;;;;;1453860;96;21219;-38
2020/12/20 09:28:27;;;;;;;1.60;1.30;;;21.60;45.90;;;;;;1455596;96;21232;-34
2020/12/20 09:30:57;;;;;;;1.65;1.30;;;21.60;45.90;;;;;;1440090;97;21432;-39
2020/12/20 09:33:33;;;;;;;1.77;1.32;;;21.60;45.80;;;;;;1455354;96;21216;-37
2020/12/20 09:36:15;;;;;;;1.67;1.10;;;21.60;45.80;;;;;;1454601;96;21278;-35
2020/12/20 09:38:48;;;;;;;1.60;1.32;;;21.60;45.80;;;;;;1440540;95;67830;-37
2020/12/20 09:41:18;;;;;;;1.30;1.12;;;21.60;45.80;;;;;;1474857;95;21227;-36
2020/12/20 09:43:47;;;;;;;2.00;1.25;;;21.60;45.80;;;;;;1462135;95;21876;-40
2020/12/20 09:46:26;;;;;;;2.45;1.47;;;21.60;45.80;;;;;;1457417;95;21185;-37
2020/12/20 09:48:55;;;;;;;1.32;1.10;;;21.60;45.80;;;;;;1475086;95;21216;-38
2020/12/20 09:51:24;;;;;;;1.77;1.25;;;21.60;45.80;;;;;;1449761;95;21215;-38
2020/12/20 09:53:52;;;;;;;1.70;1.40;;;21.60;45.80;;;;;;1471927;95;21235;-36
2020/12/20 09:56:20;;;;;;;1.60;1.40;;;21.60;45.80;;;;;;1477207;95;21262;-37
2020/12/20 09:58:48;;;;;;;1.50;1.25;;;21.60;46.10;;;;;;1471585;95;21209;-35
2020/12/20 10:01:19;;;;;;;1.55;1.35;;;21.60;45.80;;;;;;1471559;95;21232;-37
2020/12/20 10:03:47;;;;;;;1.57;1.45;;;21.60;45.80;;;;;;1458938;96;21694;-36
2020/12/20 10:06:17;;;;;;;2.80;1.40;;;21.60;45.80;;;;;;1459525;96;21402;-38
2020/12/20 10:08:45;;;;;;;7.60;1.17;;;21.60;45.80;;;;;;1472815;95;21228;-38
2020/12/20 10:11:18;;;;;;;11.25;2.22;;;21.60;46.00;;;;;;1444797;96;21323;-38
2020/12/20 10:13:46;;;;;;;1.80;1.20;;;21.60;46.10;;;;;;1474874;95;21208;-38
2020/12/20 10:16:19;;;;;;;3.77;1.57;;;21.60;46.10;;;;;;1469696;95;21232;-37
2020/12/20 10:18:47;;;;;;;3.90;1.57;;;21.70;46.30;;;;;;1473017;96;21223;-36
2020/12/20 10:21:16;;;;;;;3.70;1.62;;;21.70;46.40;;;;;;1472222;95;21354;-39
2020/12/20 10:23:43;;;;;;;7.83;1.22;;;21.70;46.40;;;;;;1454280;95;21349;-38
2020/12/20 10:26:12;;;;;;;4.15;1.50;;;21.70;46.40;;;;;;1460252;95;21188;-38
2020/12/20 10:28:40;;;;;;;4.03;1.50;;;21.70;46.50;;;;;;1468623;95;22575;-35
2020/12/20 10:31:08;;;;;;;5.28;1.40;;;21.70;46.50;;;;;;1455865;96;21172;-37
2020/12/20 10:33:37;;;;;;;2.08;1.10;;;21.70;46.70;;;;;;1487477;93;21305;-37
2020/12/20 10:36:05;;;;;;;8.15;1.47;;;21.70;46.70;;;;;;1492703;94;22460;-38
2020/12/20 10:38:33;;;;;;;2.27;1.40;;;21.80;46.60;;;;;;1480549;93;21207;-34
2020/12/20 10:41:00;;;;;;;7.03;1.77;;;21.80;46.50;;;;;;1496741;93;21393;-34
2020/12/20 10:43:31;;;;;;;6.75;1.75;;;21.80;46.50;;;;;;1473007;89;21481;-34
2020/12/20 10:45:59;;;;;;;1.70;1.22;;;21.90;46.40;;;;;;1499898;93;67717;-38
2020/12/20 10:48:27;;;;;;;1.60;1.05;;;21.90;46.20;;;;;;1468298;93;21342;-35
2020/12/20 10:50:55;;;;;;;3.15;1.72;;;22.00;46.30;;;;;;1492548;93;21290;-34
2020/12/20 10:53:23;;;;;;;3.30;1.47;;;22.00;46.20;;;;;;1502318;93;21187;-36
2020/12/20 10:55:50;;;;;;;2.85;1.30;;;22.00;46.10;;;;;;1499975;93;21221;-37
2020/12/20 10:58:18;;;;;;;2.00;1.37;;;22.00;46.10;;;;;;1501278;93;21321;-37
2020/12/20 11:00:46;;;;;;;4.15;1.30;;;22.10;46.00;;;;;;1503361;93;21250;-36
2020/12/20 11:03:14;;;;;;;2.22;1.40;;;22.10;46.10;;;;;;1486248;93;21789;-37
2020/12/20 11:05:42;;;;;;;4.80;1.85;;;22.20;45.70;;;;;;1500263;93;21242;-36
2020/12/20 11:08:10;;;;;;;8.90;1.90;;;22.20;45.90;;;;;;1483618;93;21255;-35
2020/12/20 11:10:37;;;;;;;3.45;1.80;;;22.20;46.50;;;;;;1501138;93;21309;-35
2020/12/20 11:13:05;;;;;;;4.78;1.80;;;22.20;46.30;;;;;;1501859;93;21862;-36
2020/12/20 11:15:32;;;;;;;4.05;1.90;;;22.20;46.30;;;;;;1467257;93;21195;-37
2020/12/20 11:18:00;;;;;;;2.42;1.45;;;22.30;46.30;;;;;;1501723;93;21195;-37
2020/12/20 11:20:28;;;;;;;4.60;1.90;;;22.30;46.30;;;;;;1503490;93;21808;-34
2020/12/20 11:22:56;;;;;;;9.30;1.47;;;22.30;46.30;;;;;;1484402;93;21175;-36
2020/12/20 11:25:23;;;;;;;3.67;1.80;;;22.30;46.20;;;;;;1501792;93;21970;-35
2020/12/20 11:27:51;;;;;;;4.65;1.80;;;22.40;46.20;;;;;;1469417;92;21183;-37
2020/12/20 11:30:19;;;;;;;5.60;2.12;;;22.40;46.10;;;;;;1502029;93;21315;-36
2020/12/20 11:32:47;;;;;;;2.17;1.37;;;22.40;46.10;;;;;;1501312;93;21217;-37
2020/12/20 11:35:16;;;;;;;4.75;2.00;;;22.40;46.00;;;;;;1471105;93;21184;-36
2020/12/20 11:37:45;;;;;;;2.87;1.65;;;22.40;46.00;;;;;;1500242;93;21218;-35
2020/12/20 11:40:12;;;;;;;2.83;1.57;;;22.40;46.00;;;;;;1485377;93;21390;-37
2020/12/20 11:42:40;;;;;;;5.47;1.72;;;22.50;46.00;;;;;;1485212;93;21349;-36
2020/12/20 11:45:08;;;;;;;1.75;1.42;;;22.50;46.00;;;;;;1500818;93;21230;-36
2020/12/20 11:47:40;;;;;;;1.30;1.20;;;22.50;46.00;;;;;;1469145;93;21246;-34
2020/12/20 11:50:10;;;;;;;3.70;1.80;;;22.50;45.90;;;;;;1501234;93;21222;-36
2020/12/20 11:52:37;;;;;;;3.87;1.50;;;22.50;46.00;;;;;;1501438;93;21811;-36
2020/12/20 11:55:05;;;;;;;2.27;1.50;;;22.50;46.00;;;;;;1502328;93;21789;-35
2020/12/20 11:57:34;;;;;;;3.67;1.50;;;22.60;46.10;;;;;;1502686;93;22386;-39
2020/12/20 12:00:01;;;;;;;4.33;1.40;;;22.60;46.10;;;;;;1483072;93;21811;-35
2020/12/20 12:02:30;;;;;;;3.20;1.45;;;22.60;46.10;;;;;;1487135;93;21250;-36
2020/12/20 12:04:58;;;;;;;3.22;1.50;;;22.60;46.10;;;;;;1503248;93;21323;-36
2020/12/20 12:07:26;;;;;;;3.60;1.45;;;22.60;46.10;;;;;;1465124;95;21710;-41
2020/12/20 12:09:53;;;;;;;3.90;1.50;;;22.60;46.10;;;;;;1502584;93;21272;-38
2020/12/20 12:12:21;;;;;;;3.00;1.62;;;22.60;46.20;;;;;;1501256;93;21247;-35
2020/12/20 12:14:48;;;;;;;2.42;1.60;;;22.60;46.20;;;;;;1483905;93;21290;-37
2020/12/20 12:17:17;;;;;;;2.72;1.65;;;22.70;46.30;;;;;;1502969;93;21388;-36
2020/12/20 12:19:45;;;;;;;6.95;1.90;;;22.70;46.20;;;;;;1486096;93;21203;-35
2020/12/20 12:22:12;;;;;;;7.12;2.37;;;22.60;45.50;;;;;;1485295;93;21691;-36
2020/12/20 12:24:40;;;;;;;6.70;2.20;;;22.60;44.90;;;;;;1496404;93;21307;-36
2020/12/20 12:27:08;;;;;;;5.20;2.30;;;22.50;44.60;;;;;;1467114;93;21302;-34
2020/12/20 12:29:35;;;;;;;7.08;2.67;;;22.40;44.30;;;;;;1501999;93;21489;-35
2020/12/20 12:32:03;;;;;;;4.65;2.47;;;22.40;44.00;;;;;;1503643;93;21462;-36
2020/12/20 12:34:31;;;;;;;9.13;2.20;;;22.40;43.90;;;;;;1471716;93;21778;-36
2020/12/20 12:36:58;;;;;;;12.37;3.08;;;22.30;43.60;;;;;;1501422;93;21784;-36
2020/12/20 12:39:26;;;;;;;9.90;2.47;;;22.30;43.70;;;;;;1485247;93;21195;-33
2020/12/20 12:41:54;;;;;;;7.20;2.58;;;22.40;44.10;;;;;;1484417;93;21837;-35
2020/12/20 12:44:21;;;;;;;8.95;2.47;;;22.40;43.90;;;;;;1500567;93;21206;-36
2020/12/20 12:46:49;;;;;;;5.28;2.40;;;22.50;44.10;;;;;;1480887;93;21365;-36
2020/12/20 12:49:16;;;;;;;6.28;2.10;;;22.50;44.10;;;;;;1502529;93;21414;-37
2020/12/20 12:51:44;;;;;;;8.50;2.12;;;22.50;44.10;;;;;;1499010;93;21308;-35
2020/12/20 12:54:12;;;;;;;4.37;1.92;;;22.60;44.20;;;;;;1482168;93;21936;-35
2020/12/20 12:56:39;;;;;;;7.97;2.20;;;22.60;44.20;;;;;;1497876;93;21289;-36
2020/12/20 12:59:07;;;;;;;4.22;1.92;;;22.60;44.30;;;;;;1481932;93;21319;-38